createdAt,value
2024-02-19T00:00:34.122Z,42.20
2024-02-19T00:01:49.692Z,42.20
2024-02-19T00:03:05.237Z,42.20
2024-02-19T00:04:17.605Z,42.30
2024-02-19T00:05:24.964Z,42.20
2024-02-19T00:07:53.513Z,42.30
2024-02-19T00:08:59.624Z,42.30
2024-02-19T00:10:12.553Z,42.30
2024-02-19T00:12:56.431Z,42.30
2024-02-19T00:14:13.387Z,42.30
2024-02-19T00:15:30.432Z,42.90
2024-02-19T00:16:34.988Z,42.30
2024-02-19T00:17:49.248Z,42.30
2024-02-19T00:19:03.981Z,42.30
2024-02-19T00:20:13.377Z,42.30
2024-02-19T00:21:20.858Z,42.30
2024-02-19T00:22:28.035Z,42.30
2024-02-19T00:23:37.925Z,42.30
2024-02-19T00:26:09.794Z,42.30
2024-02-19T00:27:43.007Z,42.40
2024-02-19T00:28:50.226Z,42.30
2024-02-19T00:30:01.473Z,42.30
2024-02-19T00:31:18.800Z,42.40
2024-02-19T00:33:45.245Z,42.40
2024-02-19T00:34:57.222Z,42.40
2024-02-19T00:36:11.590Z,42.40
2024-02-19T00:37:17.889Z,42.40
2024-02-19T00:38:25.934Z,42.40
2024-02-19T00:39:36.384Z,42.40
2024-02-19T00:40:59.647Z,42.50
2024-02-19T00:42:06.843Z,42.40
2024-02-19T00:43:24.820Z,42.40
2024-02-19T00:44:37.465Z,42.40
2024-02-19T00:45:48.979Z,42.50
2024-02-19T00:47:02.679Z,42.40
2024-02-19T00:48:10.476Z,42.50
2024-02-19T00:49:21.419Z,42.50
2024-02-19T00:50:25.947Z,42.50
2024-02-19T00:51:33.804Z,42.50
2024-02-19T00:53:02.358Z,42.50
2024-02-19T00:54:20.649Z,42.50
2024-02-19T00:55:36.549Z,42.50
2024-02-19T00:56:52.854Z,42.50
2024-02-19T00:58:06.932Z,42.50
2024-02-19T01:01:54.997Z,42.50
2024-02-19T01:04:35.439Z,42.50
2024-02-19T01:05:42.492Z,42.60
2024-02-19T01:06:49.721Z,42.60
2024-02-19T01:08:01.741Z,42.60
2024-02-19T01:09:13.499Z,42.60
2024-02-19T01:10:25.395Z,42.50
2024-02-19T01:11:57.741Z,42.50
2024-02-19T01:13:08.911Z,42.60
2024-02-19T01:14:15.474Z,42.60
2024-02-19T01:15:33.028Z,42.60
2024-02-19T01:16:48.409Z,42.50
2024-02-19T01:17:58.828Z,42.60
2024-02-19T01:19:17.485Z,42.70
2024-02-19T01:20:38.599Z,42.60
2024-02-19T01:21:49.799Z,42.60
2024-02-19T01:23:02.197Z,42.60
2024-02-19T01:24:18.240Z,42.60
2024-02-19T01:25:26.773Z,42.60
2024-02-19T01:26:32.995Z,43.20
2024-02-19T01:27:45.510Z,42.60
2024-02-19T01:28:59.778Z,42.60
2024-02-19T01:30:12.221Z,42.60
2024-02-19T01:31:45.218Z,42.70
2024-02-19T01:32:58.876Z,42.60
2024-02-19T01:34:07.366Z,42.60
2024-02-19T01:35:32.871Z,43.30
2024-02-19T01:36:42.272Z,42.60
2024-02-19T01:38:04.079Z,42.70
2024-02-19T01:39:11.440Z,42.70
2024-02-19T01:40:20.330Z,42.60
2024-02-19T01:43:05.900Z,42.70
2024-02-19T01:44:12.826Z,42.70
2024-02-19T01:45:42.597Z,42.80
2024-02-19T01:46:53.615Z,42.70
2024-02-19T01:48:04.905Z,42.70
2024-02-19T01:49:14.595Z,42.70
2024-02-19T01:50:34.077Z,42.70
2024-02-19T01:51:39.408Z,42.70
2024-02-19T01:52:51.861Z,42.70
2024-02-19T01:53:58.193Z,42.70
2024-02-19T01:55:05.340Z,42.80
2024-02-19T01:56:13.709Z,42.80
2024-02-19T01:57:23.825Z,42.70
2024-02-19T01:58:33.609Z,42.80
2024-02-19T01:59:43.057Z,42.80
2024-02-19T02:00:52.057Z,42.80
2024-02-19T02:02:07.241Z,42.80
2024-02-19T02:03:15.797Z,42.80
2024-02-19T02:04:31.853Z,42.80
2024-02-19T02:05:38.689Z,42.80
2024-02-19T02:06:45.171Z,42.80
2024-02-19T02:07:52.029Z,42.80
2024-02-19T02:09:00.642Z,42.80
2024-02-19T02:10:28.749Z,42.80
2024-02-19T02:12:58.605Z,42.80
2024-02-19T02:14:03.895Z,42.80
2024-02-19T02:15:13.020Z,42.80
2024-02-19T02:16:31.669Z,42.80
2024-02-19T02:17:39.224Z,42.80
2024-02-19T02:18:53.199Z,42.80
2024-02-19T02:20:01.676Z,42.80
2024-02-19T02:21:16.396Z,42.80
2024-02-19T02:22:23.828Z,42.80
2024-02-19T02:23:35.923Z,42.80
2024-02-19T02:24:41.656Z,43.40
2024-02-19T02:25:51.381Z,42.80
2024-02-19T02:26:58.461Z,42.80
2024-02-19T02:29:33.968Z,42.80
2024-02-19T02:30:52.622Z,42.80
2024-02-19T02:32:08.523Z,42.80
2024-02-19T02:33:21.878Z,42.80
2024-02-19T02:34:32.358Z,42.90
2024-02-19T02:35:44.805Z,42.80
2024-02-19T02:36:53.100Z,42.90
2024-02-19T02:37:57.817Z,42.90
2024-02-19T02:39:04.998Z,42.90
2024-02-19T02:40:13.174Z,42.90
2024-02-19T02:41:22.008Z,42.90
2024-02-19T02:42:26.886Z,42.90
2024-02-19T02:43:32.794Z,42.90
2024-02-19T02:44:39.265Z,42.90
2024-02-19T02:45:45.132Z,42.90
2024-02-19T02:47:03.811Z,42.90
2024-02-19T02:48:24.961Z,42.90
2024-02-19T02:49:33.735Z,42.90
2024-02-19T02:50:44.851Z,42.90
2024-02-19T02:51:55.846Z,42.90
2024-02-19T02:53:05.831Z,42.90
2024-02-19T02:54:13.623Z,42.90
2024-02-19T02:55:34.091Z,42.90
2024-02-19T02:56:42.124Z,42.90
2024-02-19T02:57:51.423Z,42.90
2024-02-19T02:59:03.926Z,43.00
2024-02-19T03:00:12.880Z,42.90
2024-02-19T03:01:29.713Z,43.00
2024-02-19T03:02:37.576Z,43.00
2024-02-19T03:03:45.763Z,43.00
2024-02-19T03:04:54.178Z,43.00
2024-02-19T03:06:12.828Z,43.00
2024-02-19T03:07:22.677Z,43.00
2024-02-19T03:08:48.182Z,43.00
2024-02-19T03:09:58.156Z,43.00
2024-02-19T03:11:08.295Z,43.00
2024-02-19T03:12:49.757Z,43.00
2024-02-19T03:13:55.544Z,43.00
2024-02-19T03:15:29.215Z,43.00
2024-02-19T03:16:37.228Z,43.00
2024-02-19T03:20:28.622Z,43.00
2024-02-19T03:21:33.560Z,43.00
2024-02-19T03:22:45.899Z,43.00
2024-02-19T03:24:03.456Z,43.00
2024-02-19T03:25:14.011Z,43.00
2024-02-19T03:27:41.363Z,43.00
2024-02-19T03:28:50.866Z,43.00
2024-02-19T03:30:01.553Z,43.00
2024-02-19T03:31:12.705Z,43.00
2024-02-19T03:32:17.761Z,43.00
2024-02-19T03:33:26.614Z,43.00
2024-02-19T03:34:35.876Z,43.00
2024-02-19T03:37:08.842Z,43.00
2024-02-19T03:38:15.778Z,43.10
2024-02-19T03:39:46.495Z,43.00
2024-02-19T03:40:59.289Z,43.00
2024-02-19T03:42:05.916Z,43.10
2024-02-19T03:43:09.673Z,43.00
2024-02-19T03:44:15.673Z,43.00
2024-02-19T03:45:23.236Z,43.10
2024-02-19T03:46:33.549Z,43.10
2024-02-19T03:47:41.682Z,43.10
2024-02-19T03:48:53.556Z,43.10
2024-02-19T03:49:59.909Z,43.10
2024-02-19T03:51:09.782Z,43.10
2024-02-19T03:52:23.773Z,43.10
2024-02-19T03:53:34.458Z,43.10
2024-02-19T03:54:54.139Z,43.10
2024-02-19T03:56:10.137Z,43.10
2024-02-19T03:57:16.774Z,43.10
2024-02-19T03:58:28.329Z,43.10
2024-02-19T03:59:34.414Z,43.10
2024-02-19T04:00:49.164Z,43.10
2024-02-19T04:01:58.050Z,43.10
2024-02-19T04:03:10.920Z,43.10
2024-02-19T04:04:20.862Z,43.10
2024-02-19T04:05:27.684Z,43.10
2024-02-19T04:06:33.189Z,43.10
2024-02-19T04:07:42.299Z,43.70
2024-02-19T04:08:47.965Z,43.10
2024-02-19T04:10:07.747Z,43.10
2024-02-19T04:11:13.836Z,43.10
2024-02-19T04:12:24.042Z,43.10
2024-02-19T04:13:31.286Z,43.20
2024-02-19T04:14:44.912Z,43.10
2024-02-19T04:16:02.034Z,43.10
2024-02-19T04:17:09.979Z,43.10
2024-02-19T04:18:20.183Z,43.10
2024-02-19T04:19:26.626Z,43.20
2024-02-19T04:20:32.309Z,43.10
2024-02-19T04:21:47.661Z,43.20
2024-02-19T04:22:55.229Z,43.20
2024-02-19T04:24:06.103Z,43.20
2024-02-19T04:25:19.791Z,43.20
2024-02-19T04:26:25.908Z,43.20
2024-02-19T04:27:30.957Z,43.20
2024-02-19T04:28:39.788Z,43.20
2024-02-19T04:29:51.632Z,43.20
2024-02-19T04:31:05.660Z,43.20
2024-02-19T04:32:12.448Z,43.20
2024-02-19T04:33:28.924Z,43.20
2024-02-19T04:34:42.754Z,43.30
2024-02-19T04:35:48.439Z,43.20
2024-02-19T04:37:01.192Z,43.20
2024-02-19T04:38:17.955Z,43.20
2024-02-19T04:39:25.052Z,43.20
2024-02-19T04:40:36.975Z,43.20
2024-02-19T04:41:48.945Z,43.20
2024-02-19T04:42:55.958Z,43.20
2024-02-19T04:44:03.782Z,43.20
2024-02-19T04:45:09.517Z,43.20
2024-02-19T04:46:19.149Z,43.30
2024-02-19T04:47:33.082Z,43.30
2024-02-19T04:48:42.739Z,43.20
2024-02-19T04:50:03.675Z,43.20
2024-02-19T04:51:09.394Z,43.30
2024-02-19T04:52:27.369Z,43.30
2024-02-19T04:53:39.171Z,43.90
2024-02-19T04:54:47.411Z,43.20
2024-02-19T04:57:15.842Z,43.30
2024-02-19T04:58:38.543Z,43.30
2024-02-19T05:02:46.417Z,43.30
2024-02-19T05:03:55.576Z,43.30
2024-02-19T05:05:03.174Z,43.30
2024-02-19T05:06:10.849Z,43.30
2024-02-19T05:07:18.913Z,43.30
2024-02-19T05:08:26.959Z,43.30
2024-02-19T05:09:35.674Z,43.30
2024-02-19T05:10:43.742Z,43.30
2024-02-19T05:11:49.835Z,43.30
2024-02-19T05:12:54.994Z,43.40
2024-02-19T05:14:13.625Z,43.30
2024-02-19T05:15:25.405Z,43.30
2024-02-19T05:16:35.574Z,43.20
2024-02-19T05:17:42.900Z,43.30
2024-02-19T05:18:53.729Z,43.30
2024-02-19T05:20:01.766Z,43.30
2024-02-19T05:21:11.162Z,43.30
2024-02-19T05:22:28.229Z,43.30
2024-02-19T05:23:33.797Z,43.30
2024-02-19T05:26:10.356Z,43.30
2024-02-19T05:27:22.260Z,43.30
2024-02-19T05:28:30.292Z,43.30
2024-02-19T05:29:54.644Z,43.30
2024-02-19T05:31:16.519Z,43.30
2024-02-19T05:32:28.443Z,43.40
2024-02-19T05:33:42.562Z,43.30
2024-02-19T05:34:55.391Z,43.30
2024-02-19T05:36:20.791Z,43.30
2024-02-19T05:37:46.373Z,43.30
2024-02-19T05:38:55.825Z,43.40
2024-02-19T05:40:16.475Z,43.40
2024-02-19T05:41:28.069Z,43.30
2024-02-19T05:42:41.130Z,43.40
2024-02-19T05:43:59.150Z,43.30
2024-02-19T05:45:10.236Z,43.30
2024-02-19T05:47:52.791Z,43.40
2024-02-19T05:48:58.183Z,43.40
2024-02-19T05:50:31.320Z,43.40
2024-02-19T05:51:37.418Z,43.40
2024-02-19T05:52:53.123Z,43.40
2024-02-19T05:54:28.126Z,43.40
2024-02-19T05:55:36.636Z,43.40
2024-02-19T05:56:55.114Z,43.40
2024-02-19T05:58:12.150Z,43.40
2024-02-19T05:59:22.165Z,43.40
2024-02-19T06:00:33.594Z,43.40
2024-02-19T06:01:46.615Z,43.40
2024-02-19T06:04:37.556Z,43.40
2024-02-19T06:05:47.361Z,43.40
2024-02-19T06:07:13.448Z,43.40
2024-02-19T06:08:27.026Z,43.40
2024-02-19T06:11:07.889Z,43.40
2024-02-19T06:12:22.171Z,43.40
2024-02-19T06:13:28.255Z,43.40
2024-02-19T06:14:43.193Z,43.50
2024-02-19T06:16:04.004Z,43.40
2024-02-19T06:17:14.419Z,43.40
2024-02-19T06:18:27.861Z,43.50
2024-02-19T06:19:40.216Z,43.50
2024-02-19T06:20:48.887Z,44.00
2024-02-19T06:23:18.721Z,43.50
2024-02-19T06:24:34.156Z,43.50
2024-02-19T06:25:40.795Z,43.50
2024-02-19T06:26:52.096Z,43.50
2024-02-19T06:27:58.481Z,43.50
2024-02-19T06:29:05.086Z,43.50
2024-02-19T06:31:40.116Z,43.50
2024-02-19T06:34:11.345Z,43.50
2024-02-19T06:35:24.743Z,43.50
2024-02-19T06:36:30.446Z,44.10
2024-02-19T06:37:39.781Z,43.50
2024-02-19T06:38:54.352Z,43.50
2024-02-19T06:40:34.491Z,43.50
2024-02-19T06:41:42.928Z,43.60
2024-02-19T06:42:55.444Z,43.60
2024-02-19T06:44:04.740Z,43.60
2024-02-19T06:45:16.969Z,43.60
2024-02-19T06:46:24.851Z,43.60
2024-02-19T06:47:45.859Z,43.60
2024-02-19T06:49:00.208Z,44.20
2024-02-19T06:50:09.125Z,43.60
2024-02-19T06:51:16.200Z,43.60
2024-02-19T06:52:28.686Z,43.60
2024-02-19T06:53:41.666Z,43.60
2024-02-19T06:54:52.221Z,43.60
2024-02-19T06:55:59.261Z,43.60
2024-02-19T06:57:05.444Z,43.60
2024-02-19T06:58:14.842Z,43.60
2024-02-19T06:59:36.330Z,43.60
2024-02-19T07:00:45.913Z,43.70
2024-02-19T07:02:19.178Z,43.60
2024-02-19T07:03:26.010Z,43.70
2024-02-19T07:04:38.340Z,43.70
2024-02-19T07:05:49.794Z,43.70
2024-02-19T07:06:56.193Z,43.70
2024-02-19T07:08:10.181Z,43.70
2024-02-19T07:09:16.664Z,43.70
2024-02-19T07:10:23.870Z,43.60
2024-02-19T07:11:39.394Z,43.70
2024-02-19T07:12:53.409Z,43.70
2024-02-19T07:14:01.538Z,43.70
2024-02-19T07:15:14.236Z,43.90
2024-02-19T07:16:24.653Z,43.90
2024-02-19T07:17:33.941Z,43.90
2024-02-19T07:18:45.316Z,43.90
2024-02-19T07:19:48.475Z,43.90
2024-02-19T07:20:53.816Z,44.00
2024-02-19T07:21:57.013Z,43.90
2024-02-19T07:23:04.290Z,44.00
2024-02-19T07:24:13.482Z,43.90
2024-02-19T07:25:33.039Z,43.90
2024-02-19T07:26:39.213Z,43.90
2024-02-19T07:27:54.955Z,43.90
2024-02-19T07:29:05.163Z,43.90
2024-02-19T07:30:17.986Z,44.00
2024-02-19T07:31:25.685Z,44.00
2024-02-19T07:32:39.195Z,44.00
2024-02-19T07:33:47.386Z,44.00
2024-02-19T07:34:53.625Z,44.00
2024-02-19T07:35:59.467Z,44.00
2024-02-19T07:37:04.420Z,44.00
2024-02-19T07:38:09.503Z,44.00
2024-02-19T07:39:17.583Z,44.10
2024-02-19T07:40:24.706Z,44.10
2024-02-19T07:41:33.683Z,44.10
2024-02-19T07:42:40.931Z,44.10
2024-02-19T07:43:45.952Z,44.10
2024-02-19T07:44:54.974Z,44.10
2024-02-19T07:46:09.329Z,44.20
2024-02-19T07:47:15.679Z,44.20
2024-02-19T07:48:22.875Z,44.10
2024-02-19T07:49:28.854Z,44.20
2024-02-19T07:50:47.258Z,44.30
2024-02-19T07:51:52.206Z,44.30
2024-02-19T07:52:55.556Z,44.20
2024-02-19T07:54:00.545Z,44.30
2024-02-19T07:55:04.643Z,44.30
2024-02-19T07:56:08.759Z,44.40
2024-02-19T07:57:11.707Z,44.40
2024-02-19T07:58:18.451Z,44.40
2024-02-19T07:59:25.783Z,44.50
2024-02-19T08:00:32.811Z,44.50
2024-02-19T08:01:37.201Z,44.50
2024-02-19T08:02:41.159Z,44.60
2024-02-19T08:03:48.001Z,44.60
2024-02-19T08:04:53.040Z,44.60
2024-02-19T08:06:18.669Z,44.70
2024-02-19T08:07:22.712Z,44.60
2024-02-19T08:08:27.835Z,44.70
2024-02-19T08:09:48.952Z,44.60
2024-02-19T08:10:54.701Z,44.60
2024-02-19T08:12:04.170Z,44.60
2024-02-19T08:13:17.808Z,44.70
2024-02-19T08:14:27.949Z,44.70
2024-02-19T08:15:34.461Z,44.80
2024-02-19T08:16:40.335Z,44.70
2024-02-19T08:17:49.815Z,45.30
2024-02-19T08:19:00.644Z,44.60
2024-02-19T08:20:07.660Z,44.60
2024-02-19T08:21:12.286Z,44.60
2024-02-19T08:22:16.730Z,44.60
2024-02-19T08:23:22.751Z,44.60
2024-02-19T08:24:26.971Z,44.60
2024-02-19T08:25:30.841Z,44.50
2024-02-19T08:26:38.186Z,44.50
2024-02-19T08:27:42.119Z,44.50
2024-02-19T08:28:51.399Z,44.50
2024-02-19T08:29:56.925Z,44.50
2024-02-19T08:31:00.844Z,44.60
2024-02-19T08:32:07.453Z,44.40
2024-02-19T08:33:13.031Z,44.40
2024-02-19T08:34:28.877Z,44.40
2024-02-19T08:36:53.624Z,44.40
2024-02-19T08:38:04.542Z,44.40
2024-02-19T08:39:29.824Z,44.50
2024-02-19T08:40:39.234Z,44.50
2024-02-19T08:41:46.732Z,44.50
2024-02-19T08:43:15.857Z,44.50
2024-02-19T08:44:24.311Z,44.50
2024-02-19T08:45:37.543Z,44.50
2024-02-19T08:46:43.251Z,44.50
2024-02-19T08:47:53.868Z,44.50
2024-02-19T08:49:00.823Z,44.40
2024-02-19T08:50:13.921Z,44.50
2024-02-19T08:51:25.268Z,44.50
2024-02-19T08:52:33.217Z,44.50
2024-02-19T08:53:53.634Z,44.50
2024-02-19T08:56:26.343Z,44.50
2024-02-19T08:57:38.047Z,44.50
2024-02-19T08:58:47.926Z,44.50
2024-02-19T09:00:31.478Z,44.40
2024-02-19T09:01:44.174Z,44.60
2024-02-19T09:03:16.839Z,44.50
2024-02-19T09:04:43.542Z,44.50
2024-02-19T09:05:53.221Z,44.50
2024-02-19T09:07:02.936Z,44.50
2024-02-19T09:08:26.388Z,44.50
2024-02-19T09:09:36.049Z,44.60
2024-02-19T09:10:46.869Z,44.50
2024-02-19T09:11:54.780Z,44.50
2024-02-19T09:14:29.665Z,44.50
2024-02-19T09:15:41.966Z,44.50
2024-02-19T09:19:44.334Z,44.50
2024-02-19T09:22:17.425Z,44.50
2024-02-19T09:23:31.660Z,44.50
2024-02-19T09:24:41.642Z,44.40
2024-02-19T09:25:58.693Z,44.50
2024-02-19T09:27:19.706Z,44.50
2024-02-19T09:28:32.528Z,44.50
2024-02-19T09:29:42.588Z,44.40
2024-02-19T09:30:51.879Z,44.50
2024-02-19T09:33:35.316Z,44.50
2024-02-19T09:35:04.643Z,44.50
2024-02-19T09:36:13.892Z,44.40
2024-02-19T09:37:28.080Z,44.50
2024-02-19T09:40:36.278Z,44.40
2024-02-19T09:41:55.047Z,44.40
2024-02-19T09:44:56.374Z,45.00
2024-02-19T09:46:25.584Z,44.40
2024-02-19T09:47:57.552Z,44.40
2024-02-19T09:56:29.359Z,44.40
2024-02-19T09:57:48.447Z,44.40
2024-02-19T10:01:06.214Z,44.40
2024-02-19T10:05:05.416Z,45.00
2024-02-19T10:06:29.767Z,44.40
2024-02-19T10:07:38.137Z,44.30
2024-02-19T10:08:49.166Z,44.40
2024-02-19T10:09:55.733Z,44.30
2024-02-19T10:11:11.828Z,44.30
2024-02-19T10:12:30.753Z,44.30
2024-02-19T10:14:07.739Z,44.30
2024-02-19T10:15:42.389Z,44.30
2024-02-19T10:17:02.496Z,44.30
2024-02-19T10:20:11.030Z,44.30
2024-02-19T10:21:25.674Z,44.20
2024-02-19T10:22:35.064Z,44.20
2024-02-19T10:29:03.223Z,44.30
2024-02-19T10:30:34.298Z,44.20
2024-02-19T10:31:55.824Z,44.20
2024-02-19T10:34:28.953Z,44.20
2024-02-19T10:37:02.634Z,44.20
2024-02-19T10:38:21.720Z,44.20
2024-02-19T10:41:51.300Z,44.10
2024-02-19T10:43:34.820Z,44.10
2024-02-19T10:44:55.883Z,44.10
2024-02-19T10:46:03.318Z,44.10
2024-02-19T10:48:41.801Z,44.10
2024-02-19T10:50:01.088Z,44.00
2024-02-19T10:53:13.724Z,44.00
2024-02-19T10:55:02.459Z,44.00
2024-02-19T10:58:05.635Z,44.00
2024-02-19T10:59:41.882Z,44.00
2024-02-19T11:00:48.305Z,44.00
2024-02-19T11:02:27.063Z,44.60
2024-02-19T11:03:49.983Z,44.00
2024-02-19T11:05:26.282Z,44.00
2024-02-19T11:07:01.392Z,44.10
2024-02-19T11:08:29.730Z,44.00
2024-02-19T11:13:48.736Z,44.00
2024-02-19T11:14:56.334Z,44.10
2024-02-19T11:17:28.232Z,44.10
2024-02-19T11:18:40.844Z,44.00
2024-02-19T11:19:54.468Z,44.00
2024-02-19T11:21:11.408Z,44.00
2024-02-19T11:22:35.839Z,44.00
2024-02-19T11:24:03.439Z,44.00
2024-02-19T11:25:27.366Z,44.00
2024-02-19T11:26:38.130Z,44.00
2024-02-19T11:28:00.594Z,44.10
2024-02-19T11:29:09.569Z,44.00
2024-02-19T11:31:48.467Z,44.00
2024-02-19T11:33:15.940Z,44.00
2024-02-19T11:34:43.701Z,44.00
2024-02-19T11:37:27.994Z,44.00
2024-02-19T11:40:18.950Z,44.00
2024-02-19T11:41:46.720Z,44.00
2024-02-19T11:43:03.713Z,44.00
2024-02-19T11:44:44.588Z,44.00
2024-02-19T11:46:24.003Z,44.00
2024-02-19T11:47:50.793Z,44.00
2024-02-19T11:49:00.704Z,44.00
2024-02-19T11:50:19.979Z,44.00
2024-02-19T11:51:30.879Z,43.90
2024-02-19T11:52:42.678Z,44.00
2024-02-19T11:55:25.500Z,43.90
2024-02-19T11:56:59.192Z,43.90
2024-02-19T11:58:17.607Z,44.50
2024-02-19T12:00:50.674Z,43.90
2024-02-19T12:02:01.068Z,43.90
2024-02-19T12:03:30.505Z,43.80
2024-02-19T12:06:06.283Z,43.90
2024-02-19T12:07:15.929Z,43.80
2024-02-19T12:08:32.530Z,43.90
2024-02-19T12:09:41.384Z,43.80
2024-02-19T12:10:48.402Z,43.80
2024-02-19T12:11:57.386Z,43.80
2024-02-19T12:13:10.309Z,43.80
2024-02-19T12:14:24.306Z,43.80
2024-02-19T12:15:39.912Z,43.80
2024-02-19T12:21:54.846Z,43.80
2024-02-19T12:23:20.117Z,43.80
2024-02-19T12:24:55.714Z,43.70
2024-02-19T12:26:09.684Z,43.80
2024-02-19T12:27:37.355Z,43.80
2024-02-19T12:28:59.344Z,43.80
2024-02-19T12:30:11.865Z,43.80
2024-02-19T12:31:29.169Z,43.80
2024-02-19T12:32:53.704Z,43.80
2024-02-19T12:34:06.089Z,43.80
2024-02-19T12:36:45.200Z,43.80
2024-02-19T12:37:56.390Z,43.80
2024-02-19T12:40:25.936Z,43.80
2024-02-19T12:41:36.467Z,43.70
2024-02-19T12:44:19.513Z,43.80
2024-02-19T12:45:30.888Z,43.80
2024-02-19T12:46:51.895Z,43.70
2024-02-19T12:48:04.575Z,43.80
2024-02-19T12:49:29.743Z,43.70
2024-02-19T12:50:43.648Z,43.70
2024-02-19T12:52:21.453Z,43.70
2024-02-19T12:53:44.555Z,43.70
2024-02-19T12:54:59.884Z,43.70
2024-02-19T12:56:30.359Z,43.70
2024-02-19T12:57:40.129Z,43.70
2024-02-19T12:59:17.756Z,43.70
2024-02-19T13:00:32.428Z,44.30
2024-02-19T13:01:53.941Z,43.60
2024-02-19T13:03:10.206Z,43.70
2024-02-19T13:04:34.592Z,43.60
2024-02-19T13:05:42.931Z,43.70
2024-02-19T13:06:51.272Z,43.60
2024-02-19T13:07:58.072Z,43.60
2024-02-19T13:09:03.457Z,43.60
2024-02-19T13:10:10.792Z,43.70
2024-02-19T13:11:28.636Z,43.60
2024-02-19T13:12:41.087Z,43.60
2024-02-19T13:13:51.221Z,43.60
2024-02-19T13:15:19.391Z,43.60
2024-02-19T13:16:54.567Z,43.60
2024-02-19T13:18:15.255Z,43.60
2024-02-19T13:19:33.347Z,43.60
2024-02-19T13:20:59.723Z,43.50
2024-02-19T13:22:12.957Z,43.50
2024-02-19T13:23:25.248Z,43.50
2024-02-19T13:26:00.565Z,43.50
2024-02-19T13:27:13.715Z,43.50
2024-02-19T13:28:24.477Z,43.50
2024-02-19T13:29:37.016Z,43.40
2024-02-19T13:32:07.507Z,43.40
2024-02-19T13:33:12.642Z,43.40
2024-02-19T13:34:35.567Z,43.40
2024-02-19T13:35:43.248Z,43.40
2024-02-19T13:37:14.114Z,43.40
2024-02-19T13:40:11.744Z,43.40
2024-02-19T13:41:19.387Z,43.40
2024-02-19T13:44:15.141Z,43.30
2024-02-19T13:45:25.943Z,43.30
2024-02-19T13:46:57.334Z,43.30
2024-02-19T13:48:32.470Z,43.30
2024-02-19T13:49:41.898Z,43.20
2024-02-19T13:50:59.158Z,43.20
2024-02-19T13:52:31.728Z,43.70
2024-02-19T13:53:49.508Z,43.10
2024-02-19T13:55:05.062Z,43.10
2024-02-19T13:56:19.560Z,43.20
2024-02-19T13:57:25.517Z,43.10
2024-02-19T13:58:39.948Z,43.20
2024-02-19T13:59:54.177Z,43.10
2024-02-19T14:01:06.803Z,43.10
2024-02-19T14:02:21.296Z,43.30
2024-02-19T14:03:37.213Z,43.00
2024-02-19T14:04:50.020Z,43.10
2024-02-19T14:08:43.518Z,43.00
2024-02-19T14:09:55.684Z,43.00
2024-02-19T14:11:03.073Z,43.00
2024-02-19T14:14:05.383Z,43.50
2024-02-19T14:15:13.447Z,42.90
2024-02-19T14:16:20.520Z,42.90
2024-02-19T14:17:39.311Z,42.90
2024-02-19T14:19:06.002Z,42.90
2024-02-19T14:20:27.397Z,42.80
2024-02-19T14:22:09.662Z,42.90
2024-02-19T14:25:36.544Z,42.90
2024-02-19T14:28:47.999Z,42.80
2024-02-19T14:30:03.051Z,42.80
2024-02-19T14:31:40.619Z,42.80
2024-02-19T14:32:49.138Z,42.70
2024-02-19T14:34:21.627Z,42.80
2024-02-19T14:36:53.970Z,42.70
2024-02-19T14:41:03.975Z,42.70
2024-02-19T14:42:32.297Z,42.70
2024-02-19T14:43:43.845Z,42.70
2024-02-19T14:45:08.126Z,42.60
2024-02-19T14:46:45.799Z,42.60
2024-02-19T14:48:11.278Z,42.70
2024-02-19T14:49:17.519Z,43.20
2024-02-19T14:50:31.854Z,42.60
2024-02-19T14:51:45.106Z,42.50
2024-02-19T14:54:31.068Z,42.50
2024-02-19T14:55:38.041Z,42.40
2024-02-19T14:56:46.740Z,42.40
2024-02-19T14:57:56.733Z,42.40
2024-02-19T14:59:12.376Z,42.40
2024-02-19T15:00:45.743Z,42.40
2024-02-19T15:02:28.535Z,42.40
2024-02-19T15:05:01.306Z,42.40
2024-02-19T15:07:32.702Z,42.40
2024-02-19T15:10:20.382Z,42.40
2024-02-19T15:11:37.716Z,42.40
2024-02-19T15:15:52.214Z,42.40
2024-02-19T15:17:10.253Z,42.40
2024-02-19T15:19:45.237Z,42.40
2024-02-19T15:21:27.164Z,42.40
2024-02-19T15:22:39.308Z,42.40
2024-02-19T15:25:35.856Z,42.40
2024-02-19T15:26:50.803Z,42.40
2024-02-19T15:28:00.598Z,42.30
2024-02-19T15:29:32.856Z,42.30
2024-02-19T15:30:45.001Z,42.30
2024-02-19T15:32:06.636Z,42.30
2024-02-19T15:33:32.124Z,42.30
2024-02-19T15:35:07.043Z,42.30
2024-02-19T15:36:17.220Z,42.30
2024-02-19T15:37:27.931Z,42.20
2024-02-19T15:38:44.914Z,42.20
2024-02-19T15:42:26.127Z,42.10
2024-02-19T15:44:11.584Z,42.70
2024-02-19T15:46:07.483Z,42.10
2024-02-19T15:49:06.695Z,42.10
2024-02-19T15:50:17.508Z,42.00
2024-02-19T15:51:52.132Z,42.00
2024-02-19T15:53:11.213Z,42.00
2024-02-19T15:54:54.122Z,42.00
2024-02-19T15:59:12.493Z,41.90
2024-02-19T16:02:24.388Z,41.80
2024-02-19T16:03:30.706Z,41.80
2024-02-19T16:04:42.690Z,41.80
2024-02-19T16:06:21.684Z,41.70
2024-02-19T16:07:46.543Z,41.70
2024-02-19T16:10:22.057Z,41.60
2024-02-19T16:11:40.768Z,41.50
2024-02-19T16:13:09.709Z,41.50
2024-02-19T16:14:20.747Z,41.50
2024-02-19T16:15:49.412Z,41.50
2024-02-19T16:18:22.825Z,41.40
2024-02-19T16:19:39.772Z,41.40
2024-02-19T16:20:56.981Z,41.30
2024-02-19T16:23:53.318Z,41.20
2024-02-19T16:25:02.529Z,41.20
2024-02-19T16:26:13.042Z,41.20
2024-02-19T16:27:22.923Z,41.20
2024-02-19T16:28:44.031Z,41.20
2024-02-19T16:30:11.699Z,41.20
2024-02-19T16:31:26.399Z,41.10
2024-02-19T16:32:42.081Z,41.10
2024-02-19T16:33:53.419Z,41.00
2024-02-19T16:35:08.551Z,41.10
2024-02-19T16:36:23.163Z,40.90
2024-02-19T16:37:40.066Z,41.00
2024-02-19T16:39:14.583Z,41.00
2024-02-19T16:40:30.218Z,40.90
2024-02-19T16:41:48.094Z,40.80
2024-02-19T16:43:00.450Z,40.80
2024-02-19T16:44:16.982Z,40.90
2024-02-19T16:45:39.531Z,40.70
2024-02-19T16:46:49.689Z,40.80
2024-02-19T16:48:06.050Z,40.80
2024-02-19T16:49:30.477Z,40.70
2024-02-19T16:50:59.510Z,40.80
2024-02-19T16:52:27.033Z,40.60
2024-02-19T16:53:41.360Z,40.70
2024-02-19T16:55:16.015Z,40.60
2024-02-19T16:59:16.202Z,40.60
2024-02-19T17:00:42.090Z,40.60
2024-02-19T17:01:49.763Z,40.50
2024-02-19T17:02:56.309Z,40.50
2024-02-19T17:04:30.710Z,40.50
2024-02-19T17:07:10.077Z,40.50
2024-02-19T17:08:20.918Z,40.40
2024-02-19T17:09:39.246Z,40.40
2024-02-19T17:11:07.683Z,40.40
2024-02-19T17:12:13.338Z,40.30
2024-02-19T17:13:41.505Z,40.30
2024-02-19T17:18:02.563Z,40.40
2024-02-19T17:19:15.193Z,40.20
2024-02-19T17:20:27.774Z,40.30
2024-02-19T17:21:45.703Z,40.20
2024-02-19T17:22:55.494Z,40.30
2024-02-19T17:24:04.697Z,40.20
2024-02-19T17:25:12.829Z,40.20
2024-02-19T17:26:45.091Z,40.10
2024-02-19T17:28:11.351Z,40.80
2024-02-19T17:29:22.667Z,40.20
2024-02-19T17:32:04.628Z,40.10
2024-02-19T17:33:33.253Z,40.10
2024-02-19T17:34:44.564Z,40.10
2024-02-19T17:36:05.715Z,40.10
2024-02-19T17:37:22.805Z,40.10
2024-02-19T17:39:56.650Z,40.00
2024-02-19T17:41:29.615Z,40.00
2024-02-19T17:42:59.728Z,40.00
2024-02-19T17:44:27.241Z,40.00
2024-02-19T17:47:20.610Z,40.00
2024-02-19T17:48:30.000Z,40.00
2024-02-19T17:51:33.584Z,40.50
2024-02-19T17:52:40.818Z,40.00
2024-02-19T17:53:52.591Z,40.00
2024-02-19T17:56:41.268Z,39.90
2024-02-19T17:57:52.879Z,39.90
2024-02-19T17:59:07.378Z,39.90
2024-02-19T18:00:21.662Z,39.90
2024-02-19T18:01:48.004Z,39.90
2024-02-19T18:03:16.226Z,39.90
2024-02-19T18:04:28.283Z,39.90
2024-02-19T18:05:56.654Z,39.90
2024-02-19T18:08:41.400Z,39.90
2024-02-19T18:11:40.067Z,39.80
2024-02-19T18:12:50.213Z,39.80
2024-02-19T18:14:06.429Z,39.80
2024-02-19T18:15:33.458Z,39.80
2024-02-19T18:17:13.793Z,39.80
2024-02-19T18:18:21.769Z,39.80
2024-02-19T18:19:32.905Z,39.80
2024-02-19T18:20:56.203Z,39.80
2024-02-19T18:22:17.488Z,39.70
2024-02-19T18:23:31.400Z,39.80
2024-02-19T18:24:44.265Z,39.80
2024-02-19T18:26:07.879Z,39.80
2024-02-19T18:28:49.234Z,39.70
2024-02-19T18:31:28.054Z,39.70
2024-02-19T18:32:43.605Z,39.70
2024-02-19T18:33:57.368Z,39.70
2024-02-19T18:36:46.738Z,39.70
2024-02-19T18:38:26.055Z,39.70
2024-02-19T18:39:39.193Z,39.70
2024-02-19T18:42:12.640Z,39.70
2024-02-19T18:43:27.511Z,39.70
2024-02-19T18:44:36.232Z,39.70
2024-02-19T18:45:59.430Z,39.70
2024-02-19T18:47:11.023Z,39.70